CST,Max TemperatureF,Mean TemperatureF,Min TemperatureF,Max Dew PointF,MeanDew PointF,Min DewpointF,Max Humidity, Mean Humidity, Min Humidity, Max Sea Level PressureIn, Mean Sea Level PressureIn, Min Sea Level PressureIn, Max VisibilityMiles, Mean VisibilityMiles, Min VisibilityMiles, Max Wind SpeedMPH, Mean Wind SpeedMPH, Max Gust SpeedMPH,PrecipitationIn, CloudCover, Events, WindDirDegrees
2012-12-1,56,42,29,53,43,28,100,97,84,29.95,29.84,29.76,7,3,0,10,3,17,0.00,6,Fog,184
2012-12-2,60,45,30,46,39,30,100,84,53,30.02,29.90,29.74,10,7,0,13,5,17,0.00,1,Fog,153
2012-12-3,61,46,30,49,39,24,100,75,34,30.10,29.81,29.60,10,8,0,29,11,39,0.03,1,Fog,277
2012-12-4,61,43,25,28,24,21,87,60,23,30.28,30.22,30.11,10,10,7,9,4,,0.00,0,,298
2012-12-5,59,46,33,30,27,24,81,52,25,30.29,30.08,29.86,10,10,10,20,9,30,0.00,0,,140
2012-12-6,51,44,36,35,28,25,71,49,36,30.01,29.92,29.84,10,10,10,18,10,28,0.00,6,,327
2012-12-7,41,34,27,32,28,25,100,77,57,30.01,29.95,29.88,10,10,4,9,3,,0.00,4,,17
2012-12-8,37,33,29,34,31,28,99,86,73,30.00,29.93,29.84,10,8,4,15,5,25,0.00,8,,119
2012-12-9,37,26,13,36,18,4,95,73,60,30.15,29.99,29.81,10,9,5,34,17,40,0.00,7,,288
2012-12-10,30,17,4,11,5,1,84,61,36,30.12,30.00,29.89,10,10,10,21,11,26,0.00,1,,238
2012-12-11,43,30,17,22,19,13,87,59,39,30.00,29.96,29.90,10,10,10,16,7,20,0.00,1,,240
2012-12-12,53,42,31,19,18,17,58,43,25,29.97,29.93,29.89,10,10,10,21,14,30,0.00,0,,174
2012-12-13,51,37,23,26,21,17,79,53,36,30.07,30.01,29.93,10,10,4,13,7,,0.00,0,,204
2012-12-14,56,37,18,43,29,15,87,70,44,30.05,29.84,29.57,10,10,7,18,4,24,0.01,2,Rain,139
2012-12-15,45,40,34,45,39,32,100,96,91,29.73,29.57,29.44,10,7,0,22,10,25,0.44,8,Fog-Rain,289
2012-12-16,33,29,25,33,28,26,100,91,83,29.81,29.77,29.72,10,9,2,13,6,,0.00,6,Snow,323
2012-12-17,30,27,24,29,28,24,100,99,95,29.79,29.69,29.57,7,4,2,12,4,,0.00,6,,162
2012-12-18,44,36,27,36,31,27,100,91,72,29.85,29.66,29.46,10,8,1,31,8,36,0.00,3,,300
2012-12-19,36,32,26,35,31,26,100,99,92,29.90,29.84,29.78,10,4,1,21,4,30,0.30,6,Rain-Snow,24
2012-12-20,24,18,11,24,17,9,99,90,82,30.22,30.04,29.84,10,10,5,26,17,36,0.00,3,,311
2012-12-21,25,16,7,20,14,6,96,86,69,30.31,30.24,30.14,10,10,10,12,5,,0.00,0,,170
2012-12-22,30,24,16,27,21,15,94,88,81,30.14,30.01,29.92,10,10,7,12,5,,0.01,0,,255
2012-12-23,19,14,10,15,11,7,95,88,80,30.05,30.02,29.96,10,10,7,9,5,,0.00,0,,336
2012-12-24,18,12,6,14,9,4,90,83,72,30.27,30.13,30.03,10,10,5,18,10,18,0.00,4,Snow,328
2012-12-25,13,8,3,7,3,0,87,80,75,30.48,30.38,30.26,10,10,10,14,8,21,0.00,2,,348
2012-12-26,15,7,-1,9,4,-4,90,82,73,30.36,30.24,30.14,10,10,10,8,3,,0.00,0,,341
2012-12-27,22,16,9,21,16,6,93,90,86,30.14,30.04,29.96,10,9,1,13,5,,0.00,7,Snow,84
2012-12-28,22,18,15,20,17,12,99,92,87,30.11,30.02,29.98,10,7,2,13,5,18,0.00,7,Snow,302
2012-12-29,24,12,1,18,10,-2,95,86,74,30.21,30.17,30.11,10,10,4,15,6,,0.00,1,Snow,269
2012-12-30,40,25,10,28,22,8,90,75,59,30.20,30.03,29.93,10,10,10,15,9,24,0.00,0,,223
2012-12-31,23,18,14,18,17,12,95,85,75,30.25,30.18,30.10,10,10,5,10,6,,0.00,6,,355